createdAt,value
2018-09-19T20:57:54.769Z,26.10
2018-09-19T21:00:24.767Z,25.90
2018-09-19T21:02:54.633Z,25.70
2018-09-19T21:05:23.948Z,25.70
2018-09-19T21:07:53.995Z,25.70
2018-09-19T21:10:23.454Z,25.70
2018-09-19T21:12:52.486Z,25.70
2018-09-19T21:15:21.548Z,25.70
2018-09-19T21:17:51.294Z,25.70
2018-09-19T21:20:20.611Z,25.60
2018-09-19T21:22:50.431Z,25.60
2018-09-19T21:25:19.488Z,25.60
2018-09-19T21:27:48.560Z,25.60
2018-09-19T21:30:17.639Z,25.60
2018-09-19T21:32:47.371Z,25.60
2018-09-19T21:35:17.001Z,25.50
2018-09-19T21:37:46.140Z,25.60
2018-09-19T21:40:15.182Z,25.50
2018-09-19T21:42:45.333Z,25.50
2018-09-19T21:45:14.826Z,25.50
2018-09-19T21:47:43.913Z,25.50
2018-09-19T21:50:13.484Z,25.50
2018-09-19T21:52:42.525Z,25.50
2018-09-19T21:55:12.017Z,25.40
2018-09-19T21:57:41.470Z,25.40
2018-09-19T22:00:10.615Z,25.30
2018-09-19T22:02:40.168Z,25.20
2018-09-19T22:05:09.862Z,25.20
2018-09-19T22:07:39.502Z,25.20
2018-09-19T22:10:09.678Z,25.20
2018-09-19T22:12:38.798Z,25.20
2018-09-19T22:15:07.893Z,25.10
2018-09-19T22:17:36.974Z,25.20
2018-09-19T22:20:06.860Z,25.10
2018-09-19T22:22:36.004Z,25.10
2018-09-19T22:25:05.881Z,25.20
2018-09-19T22:27:35.539Z,25.20
2018-09-19T22:30:04.944Z,25.20
2018-09-19T22:32:34.903Z,25.20
2018-09-19T22:35:04.909Z,25.20
2018-09-19T22:37:34.438Z,25.20
2018-09-19T22:40:05.439Z,25.20
2018-09-19T22:42:34.857Z,25.20
2018-09-19T22:45:04.566Z,25.20
2018-09-19T22:47:33.626Z,25.20
2018-09-19T22:50:02.716Z,25.20
2018-09-19T22:52:31.979Z,25.20
2018-09-19T22:55:02.162Z,25.20
2018-09-19T22:57:32.114Z,25.20
2018-09-19T23:00:01.821Z,25.20
2018-09-19T23:02:30.883Z,25.20
2018-09-19T23:05:00.510Z,25.20
2018-09-19T23:07:30.323Z,25.20
2018-09-19T23:10:00.472Z,25.20
2018-09-19T23:12:29.545Z,25.10
2018-09-19T23:14:58.627Z,25.10
2018-09-19T23:17:27.714Z,25.10
2018-09-19T23:19:57.950Z,25.10
2018-09-19T23:22:27.295Z,25.10
2018-09-19T23:24:56.351Z,25.10
2018-09-19T23:27:25.987Z,25.10
2018-09-19T23:29:55.058Z,25.10
2018-09-19T23:32:24.106Z,25.10
2018-09-19T23:34:54.057Z,25.10
2018-09-19T23:37:28.054Z,25.10
2018-09-19T23:39:57.662Z,25.00
2018-09-19T23:42:27.069Z,25.10
2018-09-19T23:44:56.966Z,25.00
2018-09-19T23:47:26.186Z,25.00
2018-09-19T23:49:55.318Z,25.00
2018-09-19T23:52:25.406Z,25.00
2018-09-19T23:54:54.522Z,25.00
2018-09-19T23:57:24.713Z,25.00
2018-09-19T23:59:53.783Z,25.00
